Latest Weather Observations for Horsham AWS

IDV60801

Issued at 3:02 pm EDT Monday 26 January 2015 (issued every 30 minutes, with the page automatically refreshed every 10 minutes)

About weather observations | Map of weather stations | Latest weather observations for VIC | Other Formats
Station Details ID: 079100 Name: HORSHAM AERODROME Lat: -36.67 Lon: 142.17 Height: 133.8 m
Data from the previous 72 hours. | See also: Recent months at Horsham AWS
Date/Time
EDT
Temp
°C
App
Temp
°C
Dew
Point
Rel
Hum
%
Delta-T
°C
Wind Press
QNH
hPa
Press
MSL
hPa
Rain
since 9 am
mm
Dir
 
Spd
km/h
Gust
km/h
Spd
kts
Gust
kts
26/02:30pm 20.2 14.7 2.1 30 8.4 SSW 20 37 11 20 1015.8 1015.3 0.0
26/02:00pm 21.2 15.8 2.5 29 8.8 SSE 20 32 11 17 1016.1 1015.6 0.0
26/01:30pm 20.3 14.9 2.2 30 8.4 SSW 20 35 11 19 1016.3 1015.8 0.0
26/01:00pm 19.8 14.3 0.8 28 8.6 S 19 32 10 17 1016.8 1016.3 0.0
26/12:30pm 19.7 14.2 1.7 30 8.3 S 20 37 11 20 1017.1 1016.6 0.0
26/12:00pm 19.5 14.1 2.4 32 7.9 SE 20 32 11 17 1017.3 1016.8 0.0
26/11:30am 17.6 12.2 2.4 36 7.0 S 20 30 11 16 1017.4 1016.9 0.0
26/11:00am 17.2 11.9 2.8 38 6.6 SSW 20 32 11 17 1017.7 1017.2 0.0
26/10:30am 17.7 12.6 3.9 40 6.5 SSW 20 33 11 18 1017.9 1017.4 0.0
26/10:00am 16.1 11.2 5.1 48 5.2 S 20 30 11 16 1018.0 1017.5 0.0
26/09:30am 15.0 9.7 5.2 52 4.7 S 22 30 12 16 1018.0 1017.5 0.0
26/08:30am 12.8 8.9 7.0 68 2.8 S 17 19 9 10 1017.7 1017.2 0.0
26/08:00am 11.0 8.7 7.3 78 1.8 S 9 13 5 7 1017.4 1016.9 0.0
26/07:30am 8.5 6.3 6.3 86 1.0 SW 7 9 4 5 1016.9 1016.4 0.0
26/07:00am 7.6 4.5 5.7 88 0.9 SW 11 13 6 7 1016.8 1016.3 0.0
26/06:30am 7.7 4.6 5.7 87 0.9 SW 11 13 6 7 1016.2 1015.7 0.0
26/06:00am 7.9 5.2 5.7 86 1.0 SW 9 13 5 7 1016.0 1015.5 0.0
26/05:30am 7.8 4.7 5.4 85 1.1 SW 11 13 6 7 1015.7 1015.2 0.0
26/05:00am 8.0 4.5 5.3 83 1.2 SW 13 13 7 7 1015.3 1014.8 0.0
26/04:30am 8.6 5.5 5.4 80 1.5 SW 11 11 6 6 1015.2 1014.7 0.0
26/04:00am 8.9 5.4 5.3 78 1.6 SW 13 15 7 8 1015.1 1014.6 0.0
26/03:30am 8.8 5.6 5.0 77 1.7 SW 11 15 6 8 1014.9 1014.4 0.0
26/03:00am 9.3 6.4 4.9 74 2.0 SW 9 13 5 7 1014.9 1014.4 0.0
26/02:30am 10.0 6.4 5.2 72 2.2 SW 13 15 7 8 1014.8 1014.3 0.0
26/02:00am 10.2 6.7 5.4 72 2.2 SSW 13 17 7 9 1014.9 1014.4 0.0
26/01:30am 10.3 6.7 4.9 69 2.5 SSW 13 35 7 19 1015.0 1014.5 0.0
26/01:00am 11.6 7.3 5.3 65 2.9 SSW 17 19 9 10 1014.9 1014.4 0.0
26/12:30am 11.6 7.6 5.0 64 3.0 SW 15 15 8 8 1014.7 1014.2 0.0
 
Date/Time
EDT
Temp
°C
App
Temp
°C
Dew
Point
Rel
Hum
%
Delta-T
°C
Wind Press
QNH
hPa
Press
MSL
hPa
Rain
since 9 am
mm
Dir
 
Spd
km/h
Gust
km/h
Spd
kts
Gust
kts
25/11:30pm 12.3 7.9 4.8 60 3.5 SSW 17 22 9 12 1014.6 1014.1 0.0
25/11:00pm 12.8 8.0 4.8 58 3.7 SSW 19 26 10 14 1014.5 1014.0 0.0
25/10:30pm 13.8 8.5 5.2 56 4.0 SSW 22 28 12 15 1014.2 1013.7 0.0
25/10:00pm 14.5 8.9 5.3 54 4.4 SSW 24 33 13 18 1013.9 1013.4 0.0
25/09:30pm 15.0 9.4 5.2 52 4.7 SSW 24 32 13 17 1013.3 1012.8 0.0
25/09:00pm 15.7 9.6 5.0 49 5.1 SSW 26 33 14 18 1012.9 1012.4 0.0
25/08:30pm 16.7 9.8 4.4 44 5.8 SW 30 41 16 22 1012.6 1012.1 0.0
25/08:00pm 17.8 10.0 4.7 42 6.3 SSW 35 44 19 24 1012.2 1011.7 0.0
25/07:30pm 19.4 11.5 2.3 32 7.9 SW 33 44 18 24 1011.9 1011.4 0.0
25/07:00pm 20.6 12.9 2.4 30 8.5 WSW 32 44 17 24 1011.5 1011.0 0.0
25/06:30pm 20.4 12.5 2.3 30 8.5 WSW 33 41 18 22 1011.3 1010.8 0.0
25/05:30pm 20.3 12.6 3.5 33 8.0 SW 33 48 18 26 1011.1 1010.6 0.0
25/05:00pm 19.8 11.7 3.5 34 7.8 WSW 35 48 19 26 1011.0 1010.5 0.0
25/04:30pm 19.6 11.0 4.5 37 7.3 WSW 39 54 21 29 1011.0 1010.5 0.0
25/04:00pm 22.4 14.2 4.5 31 8.9 WSW 37 46 20 25 1010.7 1010.2 0.0
25/03:43pm 21.1 12.7 3.8 32 8.4 WSW 37 54 20 29 1010.5 1010.0 0.0
25/03:30pm 20.8 12.4 1.6 28 8.9 W 35 54 19 29 1010.8 1010.3 0.0
25/03:00pm 20.8 12.2 2.6 30 8.6 WSW 37 59 20 32 1010.8 1010.3 0.0
25/02:33pm 20.8 13.8 4.0 33 8.1 WSW 30 48 16 26 1010.9 1010.4 0.0
25/02:30pm 21.5 13.5 3.7 31 8.6 WSW 35 48 19 26 1011.0 1010.5 0.0
25/02:00pm 19.3 10.9 3.9 36 7.4 WSW 37 54 20 29 1011.1 1010.6 0.0
25/01:30pm 19.4 11.4 3.6 35 7.5 WSW 35 54 19 29 1011.1 1010.6 0.0
25/01:16pm 19.0 11.5 4.4 38 7.0 WSW 33 52 18 28 1011.2 1010.7 0.0
25/01:00pm 19.3 11.4 4.3 37 7.2 SW 35 44 19 24 1011.1 1010.6 0.0
25/12:30pm 18.4 10.6 3.1 36 7.1 WSW 33 48 18 26 1011.1 1010.6 0.0
25/12:09pm 20.3 12.8 4.4 35 7.7 WSW 33 52 18 28 1011.0 1010.5 0.0
25/12:00pm 19.1 10.9 2.9 34 7.6 WSW 35 52 19 28 1011.0 1010.5 0.0
25/11:31am 18.0 10.2 2.7 36 7.1 WSW 33 52 18 28 1011.0 1010.5 0.0
25/11:30am 17.3 9.2 3.2 39 6.5 WSW 35 52 19 28 1011.0 1010.5 0.0
25/11:11am 16.9 10.0 4.6 44 5.9 WSW 30 48 16 26 1011.1 1010.6 0.0
25/11:00am 16.8 9.4 3.8 42 6.1 WSW 32 41 17 22 1011.1 1010.6 0.0
25/10:30am 16.0 8.9 5.6 50 5.0 WSW 32 39 17 21 1011.1 1010.6 0.0
25/10:00am 15.6 8.2 4.9 49 5.1 WSW 33 41 18 22 1010.9 1010.4 0.0
25/09:30am 15.9 9.7 6.1 52 4.8 WSW 28 37 15 20 1010.6 1010.1 0.0
25/09:00am 15.2 10.2 8.0 62 3.6 WSW 24 32 13 17 1010.1 1009.6 0.0
25/08:30am 14.2 8.8 7.9 66 3.1 WSW 26 37 14 20 1009.8 1009.3 0.0
25/08:00am 12.9 9.0 9.5 80 1.7 WSW 20 26 11 14 1009.3 1008.8 0.0
25/07:30am 12.1 9.4 10.2 88 1.0 W 15 17 8 9 1009.0 1008.5 0.0
25/07:00am 11.5 8.7 9.9 90 0.8 W 15 19 8 10 1008.7 1008.2 0.0
25/06:30am 11.4 8.2 9.8 90 0.8 WSW 17 20 9 11 1008.0 1007.5 0.0
25/06:00am 11.9 8.7 10.1 89 0.9 WSW 17 20 9 11 1007.6 1007.1 0.0
25/05:30am 12.5 9.5 10.6 88 1.0 WSW 17 22 9 12 1007.3 1006.8 0.0
25/05:00am 12.3 9.2 10.4 88 1.0 WSW 17 20 9 11 1007.1 1006.6 0.0
25/04:30am 12.8 9.8 10.5 86 1.2 WSW 17 22 9 12 1006.8 1006.2 0.0
25/04:00am 13.6 9.3 10.6 82 1.6 WSW 24 35 13 19 1006.5 1005.9 0.0
25/03:30am 14.4 10.4 11.7 84 1.5 WSW 24 32 13 17 1006.6 1006.0 0.0
25/03:00am 14.5 10.7 12.4 87 1.2 W 24 35 13 19 1006.6 1006.0 0.0
25/02:30am 14.4 9.5 12.4 88 1.1 W 30 39 16 21 1006.6 1006.0 0.0
25/02:00am 16.7 12.6 11.4 71 2.9 W 24 35 13 19 1006.1 1005.5 0.0
25/01:30am 17.2 12.4 10.3 64 3.7 W 26 35 14 19 1006.2 1005.6 0.0
25/01:00am 17.9 14.9 10.8 63 3.9 W 17 28 9 15 1006.4 1005.8 0.0
25/12:30am 17.3 14.2 10.2 63 3.8 WNW 17 22 9 12 1006.2 1005.6 0.0
25/12:00am 17.9 14.2 10.0 60 4.2 W 20 30 11 16 1006.6 1006.0 0.0
 
Date/Time
EDT
Temp
°C
App
Temp
°C
Dew
Point
Rel
Hum
%
Delta-T
°C
Wind Press
QNH
hPa
Press
MSL
hPa
Rain
since 9 am
mm
Dir
 
Spd
km/h
Gust
km/h
Spd
kts
Gust
kts
24/11:30pm 18.2 14.5 9.5 57 4.6 W 19 24 10 13 1006.3 1005.7 0.0
24/11:00pm 18.4 14.9 8.9 54 5.0 W 17 20 9 11 1006.3 1005.7 0.0
24/10:30pm 18.9 15.4 8.6 51 5.4 W 17 22 9 12 1006.0 1005.4 0.0
24/10:00pm 19.8 14.8 8.2 47 6.1 W 24 33 13 18 1005.8 1005.2 0.0
24/09:30pm 20.4 14.9 7.7 44 6.6 W 26 33 14 18 1005.3 1004.8 0.0
24/09:00pm 20.9 14.7 7.9 43 6.8 W 30 43 16 23 1004.8 1004.3 0.0
24/08:30pm 22.0 15.4 7.8 40 7.4 W 32 46 17 25 1004.3 1003.8 0.0
24/08:00pm 23.1 16.3 6.8 35 8.5 W 32 43 17 23 1003.9 1003.4 0.0
24/07:30pm 24.0 16.7 7.2 34 8.8 WSW 35 48 19 26 1003.5 1003.0 0.0
24/07:00pm 24.9 17.5 8.4 35 8.9 W 37 48 20 26 1003.3 1002.8 0.0
24/06:30pm 26.5 19.4 8.0 31 10.0 W 35 50 19 27 1003.0 1002.5 0.0
24/06:07pm 27.3 20.1 7.7 29 10.6 W 35 54 19 29 1002.8 1002.3 0.0
24/06:00pm 27.6 20.2 8.5 30 10.5 WNW 37 54 20 29 1002.8 1002.3 0.0
24/05:43pm 28.1 22.3 7.9 28 11.0 WNW 28 52 15 28 1002.7 1002.2 0.0
24/05:30pm 28.3 21.7 8.6 29 10.9 W 33 46 18 25 1002.7 1002.2 0.0
24/05:00pm 28.2 22.0 8.0 28 11.1 WNW 30 46 16 25 1002.9 1002.4 0.0
24/04:41pm 27.5 20.9 8.4 30 10.4 WNW 33 46 18 25 1003.3 1002.8 0.0
24/04:30pm 28.1 21.5 8.4 29 10.8 WNW 33 46 18 25 1003.3 1002.8 0.0
24/04:29pm 27.7 21.2 8.1 29 10.7 WNW 32 46 17 25 1003.2 1002.7 0.0
24/04:00pm 27.4 22.5 8.3 30 10.5 W 24 39 13 21 1003.6 1003.1 0.0
24/03:30pm 27.7 21.8 7.5 28 10.9 W 28 39 15 21 1004.0 1003.5 0.0
24/03:11pm 27.1 21.1 7.0 28 10.7 WNW 28 48 15 26 1004.0 1003.5 0.0
24/03:00pm 27.1 21.8 7.0 28 10.7 WNW 24 41 13 22 1004.2 1003.7 0.0
24/02:30pm 25.3 20.9 6.5 30 9.8 W 19 30 10 16 1004.5 1004.0 0.0
24/02:00pm 24.8 20.4 7.4 33 9.2 WSW 20 39 11 21 1005.0 1004.5 0.0
24/01:30pm 23.4 18.6 7.5 36 8.4 W 22 35 12 19 1005.5 1005.0 0.0
24/01:00pm 22.5 19.5 7.9 39 7.7 SW 13 28 7 15 1006.0 1005.4 0.0
24/12:30pm 21.9 17.5 7.3 39 7.6 W 20 30 11 16 1006.3 1005.7 0.0
24/12:00pm 21.9 17.7 8.4 42 7.2 W 20 30 11 16 1006.5 1005.9 0.0
24/11:30am 20.2 16.1 8.5 47 6.1 WSW 20 28 11 15 1006.8 1006.2 0.0
24/11:00am 19.5 14.8 9.1 51 5.5 WSW 24 32 13 17 1007.2 1006.7 0.0
24/10:30am 19.3 15.0 9.5 53 5.2 W 22 30 12 16 1007.2 1006.7 0.0
24/10:00am 18.2 14.5 9.5 57 4.6 WSW 19 28 10 15 1007.4 1006.9 0.0
24/09:30am 18.1 14.5 9.7 58 4.5 WSW 19 26 10 14 1007.5 1007.0 0.0
24/09:00am 17.0 13.6 10.4 65 3.5 WSW 19 24 10 13 1007.7 1007.2 0.0
24/08:30am 15.0 13.2 11.0 77 2.1 WSW 11 15 6 8 1007.6 1007.1 0.0
24/08:00am 13.1 10.4 10.5 84 1.4 WSW 15 19 8 10 1007.1 1006.6 0.0
24/07:30am 12.1 10.5 10.2 88 1.0 WSW 9 11 5 6 1007.2 1006.7 0.0
24/07:00am 11.0 9.6 9.4 90 0.8 WSW 7 11 4 6 1007.1 1006.6 0.0
24/06:30am 11.4 9.7 9.8 90 0.8 WSW 9 11 5 6 1006.9 1006.3 0.0
24/06:00am 11.3 9.2 9.6 89 0.9 WSW 11 13 6 7 1006.6 1006.0 0.0
24/05:30am 12.1 9.7 10.0 87 1.1 WSW 13 17 7 9 1006.4 1005.8 0.0
24/05:00am 12.2 9.8 9.9 86 1.2 WSW 13 15 7 8 1006.4 1005.8 0.0
24/04:30am 12.8 11.2 10.2 84 1.3 WSW 9 13 5 7 1006.4 1005.8 0.0
24/04:00am 13.1 11.5 10.3 83 1.5 W 9 11 5 6 1006.5 1005.9 0.0
24/03:30am 13.3 11.7 10.1 81 1.7 WSW 9 13 5 7 1006.7 1006.1 0.0
24/03:00am 13.6 12.0 10.2 80 1.8 WSW 9 13 5 7 1006.8 1006.2 0.0
24/02:30am 14.1 12.5 10.3 78 2.0 WSW 9 11 5 6 1006.9 1006.3 0.0
24/02:00am 14.5 13.0 10.5 77 2.1 SW 9 11 5 6 1007.1 1006.6 0.0
24/01:30am 14.9 13.0 10.5 75 2.3 SW 11 15 6 8 1007.4 1006.9 0.0
24/01:00am 14.9 12.6 10.3 74 2.4 SSW 13 13 7 7 1007.6 1007.1 0.0
24/12:30am 15.7 13.2 10.9 73 2.6 S 15 17 8 9 1007.6 1007.1 0.0
24/12:00am 16.4 13.5 10.9 70 3.0 S 17 20 9 11 1007.6 1007.1 0.0
 
Date/Time
EDT
Temp
°C
App
Temp
°C
Dew
Point
Rel
Hum
%
Delta-T
°C
Wind Press
QNH
hPa
Press
MSL
hPa
Rain
since 9 am
mm
Dir
 
Spd
km/h
Gust
km/h
Spd
kts
Gust
kts
23/11:30pm 17.3 14.1 11.1 67 3.4 S 19 20 10 11 1007.9 1007.4 0.0
23/11:00pm 18.2 14.9 11.5 65 3.7 S 20 28 11 15 1008.0 1007.5 0.0
23/10:30pm 19.4 14.6 11.7 61 4.3 SSW 28 35 15 19 1007.6 1007.1 0.0
23/10:00pm 20.6 16.1 11.5 56 5.1 S 26 33 14 18 1007.2 1006.7 0.0
23/09:30pm 22.1 18.3 9.9 46 6.7 SW 20 26 11 14 1006.7 1006.1 0.0
23/09:00pm 23.5 19.5 8.4 38 8.1 SSW 19 22 10 12 1006.3 1005.7 0.0
23/08:30pm 25.0 20.6 7.6 33 9.3 SSW 20 28 11 15 1005.9 1005.3 0.0
23/08:00pm 26.2 21.2 8.2 32 9.8 SSW 24 32 13 17 1005.6 1005.1 0.0
23/07:30pm 27.2 22.1 7.6 29 10.6 SW 24 33 13 18 1005.5 1005.0 0.0
23/07:00pm 27.9 23.2 7.7 28 11.0 SW 22 35 12 19 1005.4 1004.9 0.0
23/06:30pm 28.3 23.5 7.5 27 11.2 SW 22 28 12 15 1005.3 1004.8 0.0
23/06:00pm 28.1 23.4 7.9 28 11.0 SW 22 33 12 18 1005.3 1004.8 0.0
23/05:30pm 28.5 24.4 8.7 29 10.9 SW 20 32 11 17 1005.5 1005.0 0.0
23/05:00pm 28.3 22.8 9.1 30 10.7 SW 28 35 15 19 1005.5 1005.0 0.0
23/04:30pm 27.8 23.6 9.6 32 10.2 SW 22 37 12 20 1005.8 1005.2 0.0
23/04:00pm 27.9 24.1 9.7 32 10.2 SW 20 33 11 18 1006.1 1005.5 0.0
23/03:30pm 27.9 23.4 10.1 33 10.0 WSW 24 39 13 21 1006.1 1005.5 0.0

Other Formats:

Comma delimited format used in spreadsheet applications
http://www.bom.gov.au/fwo/IDV60801/IDV60801.95839.axf

JavaScript Object Notation format (JSON) in row-major order
http://www.bom.gov.au/fwo/IDV60801/IDV60801.95839.json